Time;durP1;ratioP1;P1;durP2;ratioP2;P2;SDS_P1;SDS_P2;PMS_P1;PMS_P2;Temp;Humidity;BMP_temperature;BMP_pressure;BME280_temperature;BME280_humidity;BME280_pressure;Samples;Min_cycle;Max_cycle;Signal;HPM_P1;HPM_P2
2023/08/25 00:00:44;;;;;;;4.87;2.77;;;;;;;22.50;100.00;100325.16;5015947;28;20143;-56
2023/08/25 00:03:16;;;;;;;5.27;2.70;;;;;;;22.76;100.00;100326.94;4992538;28;20579;-56
2023/08/25 00:05:48;;;;;;;5.10;2.87;;;;;;;22.68;100.00;100281.31;5002414;28;20085;-56
2023/08/25 00:08:21;;;;;;;7.07;2.90;;;;;;;22.79;100.00;100254.00;5012045;28;20049;-56
2023/08/25 00:10:54;;;;;;;5.00;3.10;;;;;;;23.43;100.00;100331.38;5022623;28;20080;-53
2023/08/25 00:13:30;;;;;;;3.43;3.03;;;;;;;23.31;100.00;100332.22;5011494;28;20118;-56
2023/08/25 00:16:03;;;;;;;4.63;3.00;;;;;;;23.16;100.00;100329.63;5011960;28;20044;-56
2023/08/25 00:18:35;;;;;;;4.83;2.63;;;;;;;23.32;100.00;100336.63;5022166;28;20049;-56
2023/08/25 00:21:08;;;;;;;4.80;2.80;;;;;;;23.62;100.00;100329.16;5011719;28;20060;-56
2023/08/25 00:23:42;;;;;;;3.43;2.80;;;;;;;23.64;100.00;100327.22;5021168;28;20056;-56
2023/08/25 00:26:15;;;;;;;6.17;2.43;;;;;;;23.53;100.00;100332.44;5010738;28;20797;-55
2023/08/25 00:28:50;;;;;;;3.43;2.30;;;;;;;23.79;100.00;100327.13;5022199;28;20521;-56
2023/08/25 00:31:23;;;;;;;3.70;2.50;;;;;;;24.24;100.00;100327.50;4991283;28;20047;-55
2023/08/25 00:33:55;;;;;;;5.00;2.33;;;;;;;24.74;100.00;100325.63;5001578;28;20530;-54
2023/08/25 00:36:28;;;;;;;2.90;2.10;;;;;;;24.73;100.00;100318.56;5011823;28;20451;-55
2023/08/25 00:39:01;;;;;;;2.83;2.07;;;;;;;24.49;99.97;100316.75;5011865;28;20057;-55
2023/08/25 00:41:33;;;;;;;2.93;2.17;;;;;;;24.26;100.00;100315.75;5019897;28;20082;-55
2023/08/25 00:44:08;;;;;;;7.33;2.80;;;;;;;24.08;100.00;100322.41;5010739;28;20068;-55
2023/08/25 00:46:42;;;;;;;3.87;2.63;;;;;;;24.19;100.00;100308.25;5001861;28;20107;-54
2023/08/25 00:49:15;;;;;;;3.50;3.00;;;;;;;24.36;100.00;100310.56;5009505;28;20041;-55
2023/08/25 00:51:48;;;;;;;4.40;2.40;;;;;;;24.71;99.77;100309.81;5020763;28;20139;-56
2023/08/25 00:54:23;;;;;;;4.27;2.20;;;;;;;25.05;98.42;100297.41;5011505;28;20041;-56
2023/08/25 00:56:55;;;;;;;3.47;2.40;;;;;;;24.94;97.06;100314.28;5020886;28;20113;-56
2023/08/25 00:59:29;;;;;;;7.13;2.60;;;;;;;24.58;98.42;100309.03;4991796;28;20111;-55
2023/08/25 01:02:02;;;;;;;3.37;2.47;;;;;;;24.72;99.93;100309.69;4992084;28;20207;-56
2023/08/25 01:04:36;;;;;;;4.27;2.43;;;;;;;24.86;99.14;100308.69;5019069;28;20435;-56
2023/08/25 01:07:08;;;;;;;3.70;2.50;;;;;;;25.05;99.44;100301.91;5011370;28;20071;-56
2023/08/25 01:09:39;;;;;;;4.23;2.73;;;;;;;25.24;98.71;100304.94;5021140;28;20444;-56
2023/08/25 01:12:27;;;;;;;3.40;2.70;;;;;;;25.32;96.26;100304.34;5010540;28;20072;-55
2023/08/25 01:15:06;;;;;;;5.13;2.70;;;;;;;24.98;95.63;100275.63;5011074;28;20620;-55
2023/08/25 01:17:44;;;;;;;5.13;2.90;;;;;;;25.07;96.32;100300.00;5021442;28;20133;-55
2023/08/25 01:20:18;;;;;;;6.35;2.50;;;;;;;24.83;97.94;100276.81;5009472;28;20126;-55
2023/08/25 01:23:10;;;;;;;3.00;2.70;;;;;;;25.09;98.21;100306.06;5021643;28;20106;-56
2023/08/25 01:25:44;;;;;;;3.37;2.50;;;;;;;25.28;98.53;100298.34;5020736;28;20473;-55
2023/08/25 01:28:17;;;;;;;4.53;3.00;;;;;;;25.54;97.00;100304.34;4995227;28;20175;-56
2023/08/25 01:30:54;;;;;;;5.73;3.60;;;;;;;25.51;95.34;100271.63;5020779;28;20056;-56
2023/08/25 01:33:30;;;;;;;6.87;3.23;;;;;;;25.67;92.64;100303.41;4990046;28;20053;-56
2023/08/25 01:36:14;;;;;;;5.67;3.50;;;;;;;25.48;92.26;100275.41;4991914;28;20069;-55
2023/08/25 01:38:52;;;;;;;4.93;3.10;;;;;;;25.34;92.27;100217.66;5015634;28;20391;-55
2023/08/25 01:41:32;;;;;;;4.83;2.83;;;;;;;25.92;91.15;100296.97;5009877;28;20161;-55
2023/08/25 01:44:07;;;;;;;3.27;2.50;;;;;;;26.00;91.65;100303.41;5010139;28;20044;-56
2023/08/25 01:46:43;;;;;;;5.73;3.17;;;;;;;26.23;91.93;100285.50;5020566;28;20139;-55
2023/08/25 01:49:17;;;;;;;7.07;3.00;;;;;;;26.41;91.31;100290.28;5010406;28;20389;-57
2023/08/25 01:51:49;;;;;;;4.93;3.13;;;;;;;26.58;90.17;100289.78;5020754;28;20171;-55
2023/08/25 01:54:26;;;;;;;4.83;2.87;;;;;;;26.87;92.32;100283.81;4991794;28;20077;-56
2023/08/25 01:57:00;;;;;;;4.87;3.17;;;;;;;27.24;87.86;100276.19;4991240;28;20049;-55
2023/08/25 01:59:33;;;;;;;5.63;2.90;;;;;;;27.06;84.78;100249.09;5014050;28;20148;-54
2023/08/25 02:02:06;;;;;;;4.87;3.03;;;;;;;27.18;84.19;100275.84;5012561;28;20483;-56
2023/08/25 02:04:39;;;;;;;5.27;2.63;;;;;;;27.27;83.80;100275.09;5025389;28;20048;-55
2023/08/25 02:07:14;;;;;;;6.73;3.20;;;;;;;27.29;84.11;100246.31;5014271;28;20140;-56
2023/08/25 02:09:47;;;;;;;6.47;2.97;;;;;;;27.31;83.54;100272.00;5023810;28;20045;-56
2023/08/25 02:12:21;;;;;;;4.20;2.97;;;;;;;27.16;83.05;100234.88;5013044;28;20053;-55
2023/08/25 02:14:53;;;;;;;4.97;3.00;;;;;;;27.17;83.97;100258.06;5024020;28;20045;-56
2023/08/25 02:17:25;;;;;;;4.07;2.60;;;;;;;27.15;84.71;100260.00;4993398;28;20091;-56
2023/08/25 02:19:58;;;;;;;3.97;2.90;;;;;;;27.09;84.25;100266.75;4994478;28;20487;-56
2023/08/25 02:22:31;;;;;;;4.43;3.17;;;;;;;27.40;84.58;100264.97;5008780;28;20572;-55
2023/08/25 02:25:04;;;;;;;4.27;2.87;;;;;;;27.69;85.06;100269.66;5013545;28;20049;-53
2023/08/25 02:27:37;;;;;;;4.80;2.83;;;;;;;27.89;81.35;100249.97;5023064;28;20053;-55
2023/08/25 02:30:10;;;;;;;4.00;2.70;;;;;;;27.89;81.60;100244.59;5013644;28;20511;-55
2023/08/25 02:32:43;;;;;;;3.13;2.50;;;;;;;27.83;82.03;100255.88;5024472;28;20064;-55
2023/08/25 02:35:16;;;;;;;5.70;2.80;;;;;;;27.68;80.66;100262.56;5013825;28;20045;-54
2023/08/25 02:38:01;;;;;;;4.87;2.97;;;;;;;27.70;82.11;100252.53;5024436;28;20045;-56
2023/08/25 02:40:34;;;;;;;5.27;2.77;;;;;;;27.74;84.96;100227.13;4991817;28;20123;-56
2023/08/25 02:43:09;;;;;;;7.60;3.17;;;;;;;27.83;82.23;100244.28;4993810;28;20041;-56
2023/08/25 02:45:45;;;;;;;5.13;2.60;;;;;;;27.57;81.98;100251.94;5018504;28;20057;-55
2023/08/25 02:48:20;;;;;;;5.75;2.63;;;;;;;27.34;82.87;100253.94;5013932;28;20459;-55
2023/08/25 02:50:54;;;;;;;3.93;2.60;;;;;;;27.13;83.42;100261.97;5023690;28;20122;-56
2023/08/25 02:53:29;;;;;;;5.03;3.00;;;;;;;26.98;83.58;100264.97;5013217;28;20143;-55
2023/08/25 02:56:04;;;;;;;5.40;2.90;;;;;;;26.97;85.43;100268.66;5014181;28;20063;-56
2023/08/25 02:58:42;;;;;;;6.13;2.70;;;;;;;27.01;86.35;100270.09;5024024;28;20049;-57
2023/08/25 03:01:16;;;;;;;6.18;3.05;;;;;;;26.94;85.09;100268.91;5012964;28;20566;-56
2023/08/25 03:03:49;;;;;;;6.27;2.80;;;;;;;26.85;85.52;100270.53;5023181;28;20476;-56
2023/08/25 03:06:22;;;;;;;7.10;3.13;;;;;;;26.92;89.44;100270.88;5001949;28;20053;-55
2023/08/25 03:08:58;;;;;;;4.17;3.23;;;;;;;27.03;89.88;100278.88;5019255;28;20048;-56
2023/08/25 03:11:31;;;;;;;3.20;2.40;;;;;;;27.14;89.58;100269.06;5013158;28;20049;-57
2023/08/25 03:14:05;;;;;;;9.13;2.50;;;;;;;27.29;89.41;100263.25;5012709;28;20041;-57
2023/08/25 03:16:38;;;;;;;6.87;3.77;;;;;;;27.43;90.22;100264.75;5023473;28;20199;-55
2023/08/25 03:19:12;;;;;;;4.30;3.10;;;;;;;27.51;90.23;100256.88;5013308;28;20064;-56
2023/08/25 03:21:47;;;;;;;5.00;3.03;;;;;;;27.51;88.99;100254.19;5022634;28;20484;-56
2023/08/25 03:24:19;;;;;;;6.00;2.57;;;;;;;27.49;88.13;100258.81;5012734;28;20053;-57
2023/08/25 03:26:54;;;;;;;6.50;3.20;;;;;;;27.36;88.71;100230.50;5022451;28;20056;-57
2023/08/25 03:29:29;;;;;;;4.83;2.30;;;;;;;27.35;87.81;100251.13;5008718;28;20122;-56
2023/08/25 03:32:02;;;;;;;2.73;1.90;;;;;;;27.28;88.28;100255.31;5002503;28;20052;-56
2023/08/25 03:34:34;;;;;;;9.33;2.50;;;;;;;27.17;87.32;100252.69;5021926;28;20037;-56
2023/08/25 03:37:08;;;;;;;5.10;2.70;;;;;;;27.20;88.27;100252.44;4994491;28;20049;-56
2023/08/25 03:39:42;;;;;;;4.77;2.03;;;;;;;27.27;89.16;100253.63;5002825;28;20045;-57
2023/08/25 03:42:16;;;;;;;5.03;2.17;;;;;;;27.36;88.66;100242.09;4992738;28;20046;-56
2023/08/25 03:44:52;;;;;;;4.47;2.13;;;;;;;27.51;86.86;100242.59;5002917;28;20143;-55
2023/08/25 03:47:26;;;;;;;4.93;1.83;;;;;;;27.62;85.10;100247.00;5012849;28;20049;-56
2023/08/25 03:49:59;;;;;;;2.60;1.90;;;;;;;27.71;85.15;100251.56;5012906;28;20049;-55
2023/08/25 03:52:32;;;;;;;2.33;1.80;;;;;;;27.78;85.16;100252.69;5022332;28;20045;-55
2023/08/25 03:55:06;;;;;;;7.43;5.20;;;;;;;27.71;84.78;100252.41;5012678;28;20064;-56
2023/08/25 03:57:40;;;;;;;4.40;2.43;;;;;;;27.62;84.52;100249.69;5022476;28;20375;-56
2023/08/25 04:00:15;;;;;;;4.00;2.00;;;;;;;27.50;85.13;100243.56;5012434;28;20049;-54
2023/08/25 04:02:51;;;;;;;3.35;1.92;;;;;;;27.15;85.32;100211.75;5021749;28;20084;-57
2023/08/25 04:05:24;;;;;;;6.17;2.23;;;;;;;27.11;84.28;100249.56;5010592;28;20045;-56
2023/08/25 04:07:57;;;;;;;19.57;2.50;;;;;;;26.88;85.42;100253.34;5015843;28;20060;-57
2023/08/25 04:10:31;;;;;;;6.00;2.80;;;;;;;26.52;88.10;100252.75;5022375;28;20052;-56
2023/08/25 04:13:06;;;;;;;5.37;2.50;;;;;;;26.24;90.39;100255.03;5012548;28;20059;-56
2023/08/25 04:15:40;;;;;;;6.00;2.77;;;;;;;25.93;92.04;100250.47;5021890;28;20074;-56
2023/08/25 04:18:13;;;;;;;3.43;2.60;;;;;;;25.63;94.47;100243.06;5011675;28;20049;-55
2023/08/25 04:20:47;;;;;;;4.23;2.80;;;;;;;25.47;95.23;100243.44;5021915;28;20053;-57
2023/08/25 04:23:20;;;;;;;3.87;2.57;;;;;;;25.36;96.78;100252.28;5011119;28;20056;-56
2023/08/25 04:25:52;;;;;;;3.20;2.57;;;;;;;25.35;97.62;100266.63;5021852;28;20049;-55
2023/08/25 04:28:26;;;;;;;4.10;2.57;;;;;;;25.22;98.09;100256.06;5012246;28;20076;-57
2023/08/25 04:31:00;;;;;;;3.33;2.57;;;;;;;25.07;98.04;100255.38;5011519;28;20419;-57
2023/08/25 04:33:33;;;;;;;4.50;2.70;;;;;;;24.99;98.53;100260.47;5021807;28;20049;-57
2023/08/25 04:36:07;;;;;;;4.47;2.40;;;;;;;24.81;99.43;100257.41;5012082;28;20144;-58
2023/08/25 04:38:40;;;;;;;3.97;2.33;;;;;;;24.81;100.00;100260.06;5021571;28;20068;-56
2023/08/25 04:41:13;;;;;;;2.93;2.33;;;;;;;24.65;99.82;100256.84;5011710;28;20055;-56
2023/08/25 04:43:47;;;;;;;6.03;2.43;;;;;;;24.73;100.00;100259.78;5020507;28;20044;-56
2023/08/25 04:46:22;;;;;;;7.53;2.87;;;;;;;24.79;99.25;100267.34;5011384;28;20056;-55
2023/08/25 04:48:54;;;;;;;2.80;2.20;;;;;;;24.72;99.65;100268.78;5021528;28;20098;-55
2023/08/25 04:51:28;;;;;;;5.10;2.20;;;;;;;24.68;98.48;100267.28;4999633;28;20447;-55
2023/08/25 04:54:00;;;;;;;3.73;2.17;;;;;;;24.71;99.56;100280.41;4991735;28;20053;-55
2023/08/25 04:56:32;;;;;;;3.70;2.33;;;;;;;24.66;98.54;100280.78;5000714;28;20575;-57
2023/08/25 04:59:06;;;;;;;3.53;2.33;;;;;;;24.68;98.50;100278.81;5002122;28;20060;-56
2023/08/25 05:01:41;;;;;;;3.97;2.27;;;;;;;24.92;98.26;100286.81;5021380;28;20037;-56
2023/08/25 05:04:13;;;;;;;9.20;2.33;;;;;;;25.20;95.63;100279.38;5011449;28;20057;-56
2023/08/25 05:06:49;;;;;;;4.23;2.30;;;;;;;25.14;93.81;100275.34;5020440;28;20365;-56
2023/08/25 05:09:32;;;;;;;3.93;2.30;;;;;;;24.84;96.15;100246.47;5011630;28;20191;-55
2023/08/25 05:12:05;;;;;;;5.43;2.30;;;;;;;24.88;96.34;100263.94;5010748;28;20052;-56
2023/08/25 05:14:38;;;;;;;3.17;2.57;;;;;;;24.80;95.39;100270.88;5021613;28;20053;-57
2023/08/25 05:17:13;;;;;;;7.23;2.90;;;;;;;24.74;98.26;100277.53;5012180;28;20098;-56
2023/08/25 05:19:46;;;;;;;3.13;2.27;;;;;;;24.56;96.86;100262.88;5021300;28;20140;-56
2023/08/25 05:22:20;;;;;;;4.33;2.53;;;;;;;24.33;97.82;100276.91;5010873;28;20484;-57
2023/08/25 05:24:53;;;;;;;4.07;2.50;;;;;;;24.30;99.06;100263.81;5021567;28;20047;-56
2023/08/25 05:27:27;;;;;;;3.07;2.40;;;;;;;24.32;97.73;100277.06;5010783;28;20056;-56
2023/08/25 05:29:59;;;;;;;6.17;2.50;;;;;;;24.23;99.07;100277.72;5010919;28;20064;-56
2023/08/25 05:32:35;;;;;;;4.97;3.07;;;;;;;24.05;99.40;100275.44;5020972;28;20334;-56
2023/08/25 05:35:08;;;;;;;6.90;2.80;;;;;;;23.86;99.63;100269.69;5011547;28;20048;-56
2023/08/25 05:37:42;;;;;;;4.13;2.83;;;;;;;23.90;99.72;100280.06;5025426;28;20451;-57
2023/08/25 05:40:14;;;;;;;3.47;2.50;;;;;;;23.76;99.96;100285.50;5014343;28;20041;-56
2023/08/25 05:42:47;;;;;;;4.40;2.67;;;;;;;23.52;100.00;100288.09;5024596;28;20077;-56
2023/08/25 05:45:20;;;;;;;3.87;2.90;;;;;;;23.55;100.00;100293.19;5014665;28;20224;-57
2023/08/25 05:47:55;;;;;;;4.90;3.33;;;;;;;23.45;100.00;100302.81;5024952;28;20056;-58
2023/08/25 05:50:28;;;;;;;3.50;2.60;;;;;;;23.18;100.00;100306.41;5014771;28;20084;-57
2023/08/25 05:53:01;;;;;;;3.20;2.60;;;;;;;22.97;100.00;100297.19;5015369;28;20059;-59
2023/08/25 05:55:36;;;;;;;5.77;2.70;;;;;;;22.77;100.00;100287.88;5025364;28;20049;-58
2023/08/25 05:58:11;;;;;;;4.20;2.93;;;;;;;22.74;100.00;100296.91;5012675;28;20053;-57
2023/08/25 06:00:46;;;;;;;3.27;2.30;;;;;;;22.58;100.00;100307.72;5024186;28;20399;-57
2023/08/25 06:03:21;;;;;;;5.93;2.40;;;;;;;22.44;100.00;100298.91;5014141;28;20147;-56
2023/08/25 06:05:57;;;;;;;4.30;2.13;;;;;;;22.40;100.00;100296.47;5024691;28;20045;-57
2023/08/25 06:08:29;;;;;;;3.23;2.03;;;;;;;22.32;100.00;100284.63;5012164;28;20048;-56
2023/08/25 06:11:03;;;;;;;3.60;2.13;;;;;;;22.20;100.00;100296.91;5014484;28;20068;-57
2023/08/25 06:13:37;;;;;;;2.50;2.03;;;;;;;22.16;100.00;100292.69;5024796;28;20056;-57
2023/08/25 06:16:11;;;;;;;2.77;1.60;;;;;;;22.17;100.00;100292.59;5013945;28;20386;-57
2023/08/25 06:18:45;;;;;;;2.43;1.33;;;;;;;21.73;100.00;100250.19;5024116;28;20377;-58
2023/08/25 06:21:17;;;;;;;6.17;1.77;;;;;;;21.91;100.00;100296.91;5014228;28;20050;-58
2023/08/25 06:23:49;;;;;;;2.00;1.60;;;;;;;21.84;100.00;100303.59;5023968;28;20490;-57
2023/08/25 06:26:22;;;;;;;6.50;2.00;;;;;;;21.72;100.00;100285.72;5012721;28;20126;-58
2023/08/25 06:28:56;;;;;;;3.07;1.40;;;;;;;21.67;100.00;100293.16;5024314;28;20049;-57
2023/08/25 06:31:33;;;;;;;2.67;1.40;;;;;;;21.65;100.00;100289.72;4998384;28;20048;-56
2023/08/25 06:34:08;;;;;;;1.93;1.40;;;;;;;21.66;100.00;100286.94;5013827;28;20680;-57
2023/08/25 06:36:42;;;;;;;7.70;1.70;;;;;;;21.68;100.00;100300.16;5023976;28;20110;-56
2023/08/25 06:39:15;;;;;;;3.90;1.40;;;;;;;21.64;100.00;100293.31;5013420;28;20179;-57
2023/08/25 06:41:48;;;;;;;2.47;1.37;;;;;;;21.65;100.00;100303.03;5023653;28;20041;-57
2023/08/25 06:44:21;;;;;;;2.83;1.30;;;;;;;21.51;100.00;100315.34;5013818;28;20107;-57
2023/08/25 06:46:53;;;;;;;2.07;1.47;;;;;;;21.48;100.00;100304.03;5022563;28;20045;-57
2023/08/25 06:49:31;;;;;;;1.70;1.20;;;;;;;21.49;100.00;100306.63;4993952;28;20068;-57
2023/08/25 06:52:05;;;;;;;4.00;1.20;;;;;;;21.41;100.00;100314.19;4992244;28;20045;-57
2023/08/25 06:54:38;;;;;;;5.87;1.50;;;;;;;21.30;100.00;100304.19;5003889;28;20053;-57
2023/08/25 06:57:11;;;;;;;5.57;1.30;;;;;;;21.27;100.00;100304.38;4992781;28;20912;-56
2023/08/25 06:59:44;;;;;;;3.53;1.33;;;;;;;21.32;100.00;100304.94;5001283;28;20404;-57
2023/08/25 07:02:18;;;;;;;3.47;1.20;;;;;;;21.33;100.00;100292.50;4993347;28;21658;-57
2023/08/25 07:04:53;;;;;;;1.40;1.10;;;;;;;21.27;100.00;100295.56;5003396;28;20064;-57
2023/08/25 07:07:31;;;;;;;4.30;1.20;;;;;;;21.21;100.00;100286.13;5013461;28;20063;-58
2023/08/25 07:10:06;;;;;;;2.57;1.00;;;;;;;21.08;100.00;100288.66;4997230;28;20061;-58
2023/08/25 07:12:40;;;;;;;1.60;1.20;;;;;;;21.01;100.00;100295.28;5023640;28;20125;-56
2023/08/25 07:15:13;;;;;;;2.23;0.93;;;;;;;21.00;100.00;100298.91;5013749;28;20045;-57
2023/08/25 07:17:48;;;;;;;2.33;1.07;;;;;;;20.88;100.00;100278.38;5023243;28;20302;-57
2023/08/25 07:20:23;;;;;;;2.80;0.93;;;;;;;20.85;100.00;100289.19;5004010;28;20287;-57
2023/08/25 07:22:57;;;;;;;1.00;0.80;;;;;;;20.83;100.00;100291.06;5016978;28;20045;-57
2023/08/25 07:25:31;;;;;;;1.93;0.90;;;;;;;20.80;100.00;100292.09;5022776;28;20052;-57
2023/08/25 07:28:04;;;;;;;2.20;1.13;;;;;;;20.79;100.00;100300.16;5013124;28;20693;-56
2023/08/25 07:30:40;;;;;;;0.90;0.87;;;;;;;20.73;100.00;100308.50;5023355;28;20380;-57
2023/08/25 07:33:14;;;;;;;1.97;1.00;;;;;;;20.71;100.00;100308.56;5013283;28;20323;-56
2023/08/25 07:35:57;;;;;;;1.20;0.97;;;;;;;20.59;100.00;100307.50;5023230;28;20796;-56
2023/08/25 07:38:30;;;;;;;3.33;1.00;;;;;;;20.47;100.00;100313.47;5013246;28;20782;-58
2023/08/25 07:41:03;;;;;;;2.93;0.90;;;;;;;20.39;100.00;100313.03;5013177;28;20287;-57
2023/08/25 07:43:36;;;;;;;2.93;1.07;;;;;;;20.43;100.00;100309.25;5023883;28;20298;-57
2023/08/25 07:46:10;;;;;;;2.40;1.10;;;;;;;20.51;100.00;100311.47;5012767;28;20291;-58
2023/08/25 07:48:44;;;;;;;4.43;1.27;;;;;;;20.46;100.00;100309.94;5022540;28;20730;-56
2023/08/25 07:51:20;;;;;;;3.13;0.80;;;;;;;20.32;100.00;100316.97;5012981;28;20757;-57
2023/08/25 07:54:10;;;;;;;3.10;1.00;;;;;;;20.22;100.00;100314.84;5012829;28;20808;-57
2023/08/25 07:56:44;;;;;;;1.17;1.00;;;;;;;20.11;100.00;100311.06;5023067;28;20765;-57
2023/08/25 07:59:16;;;;;;;8.63;1.63;;;;;;;20.06;100.00;100313.13;5011911;28;20292;-55
2023/08/25 08:01:50;;;;;;;2.20;0.90;;;;;;;20.03;100.00;100311.47;5022602;28;20386;-57
2023/08/25 08:04:24;;;;;;;3.80;1.07;;;;;;;19.96;100.00;100310.97;5011177;28;20385;-56
2023/08/25 08:07:01;;;;;;;3.67;1.07;;;;;;;20.00;100.00;100309.00;5017427;28;20279;-56
2023/08/25 08:09:36;;;;;;;3.70;1.00;;;;;;;19.97;100.00;100306.53;5021238;28;20280;-57
2023/08/25 08:12:10;;;;;;;1.03;0.73;;;;;;;20.03;100.00;100300.88;5011465;28;20594;-56
2023/08/25 08:14:48;;;;;;;9.03;1.30;;;;;;;19.95;100.00;100303.09;5022039;28;20295;-57
2023/08/25 08:17:23;;;;;;;1.60;0.93;;;;;;;19.88;100.00;100296.41;4992319;28;20276;-57
2023/08/25 08:19:58;;;;;;;1.53;1.00;;;;;;;19.86;100.00;100308.91;4995176;28;20587;-56
2023/08/25 08:22:34;;;;;;;3.87;1.20;;;;;;;19.78;100.00;100312.81;5022002;28;20690;-57
2023/08/25 08:25:10;;;;;;;2.10;1.10;;;;;;;19.73;100.00;100304.25;5011806;28;20288;-58
2023/08/25 08:27:44;;;;;;;3.40;1.30;;;;;;;19.61;100.00;100283.66;5021570;28;20276;-56
2023/08/25 08:30:21;;;;;;;3.63;1.40;;;;;;;19.73;100.00;100293.66;5011643;28;20284;-56
2023/08/25 08:32:54;;;;;;;6.37;2.00;;;;;;;19.74;100.00;100297.16;5021802;28;20290;-56
2023/08/25 08:35:36;;;;;;;4.00;1.50;;;;;;;19.74;100.00;100290.03;5011615;28;20371;-57
2023/08/25 08:38:14;;;;;;;2.23;1.40;;;;;;;19.78;100.00;100302.22;5011484;28;20288;-57
2023/08/25 08:40:49;;;;;;;3.80;1.70;;;;;;;19.70;100.00;100301.78;5020764;28;20369;-57
2023/08/25 08:43:23;;;;;;;2.10;1.63;;;;;;;19.71;100.00;100306.13;4991478;28;20385;-56
2023/08/25 08:45:57;;;;;;;7.67;1.90;;;;;;;19.60;100.00;100313.78;5000776;28;21456;-57
2023/08/25 08:48:31;;;;;;;3.37;1.60;;;;;;;19.50;100.00;100315.19;4990522;28;20303;-57
2023/08/25 08:51:07;;;;;;;2.37;1.70;;;;;;;19.43;100.00;100314.66;4991235;28;20382;-57
2023/08/25 08:53:44;;;;;;;1.97;1.70;;;;;;;19.40;100.00;100307.72;5015725;28;20375;-57
2023/08/25 08:56:20;;;;;;;2.20;1.50;;;;;;;19.42;100.00;100312.06;5011246;28;20295;-57
2023/08/25 08:58:54;;;;;;;3.13;1.53;;;;;;;19.38;100.00;100309.59;5021059;28;21128;-57
2023/08/25 09:01:27;;;;;;;1.67;1.53;;;;;;;19.40;100.00;100299.78;5009691;28;20673;-57
2023/08/25 09:04:21;;;;;;;3.67;1.60;;;;;;;19.45;100.00;100309.28;5010590;28;20331;-57
2023/08/25 09:07:42;;;;;;;2.00;1.70;;;;;;;19.55;100.00;100308.72;5010966;28;20305;-56
2023/08/25 09:10:18;;;;;;;3.67;1.43;;;;;;;19.52;100.00;100316.84;4986897;28;20300;-57
2023/08/25 09:12:49;;;;;;;1.97;1.60;;;;;;;19.31;100.00;100275.56;5020182;28;20322;-58
2023/08/25 09:15:29;;;;;;;2.47;1.77;;;;;;;19.63;100.00;100313.59;5011599;28;20267;-56
2023/08/25 09:18:04;;;;;;;3.57;1.40;;;;;;;19.44;100.00;100312.84;5011214;28;20653;-57
2023/08/25 09:20:38;;;;;;;3.70;2.30;;;;;;;19.44;100.00;100312.84;5021506;28;20294;-56
2023/08/25 09:23:14;;;;;;;4.13;2.27;;;;;;;19.66;100.00;100318.75;5011000;28;20295;-58
2023/08/25 09:25:49;;;;;;;1.33;0.90;;;;;;;19.76;100.00;100314.69;5021668;28;20295;-59
2023/08/25 09:28:27;;;;;;;1.47;1.33;;;;;;;19.75;100.00;100307.69;4991664;28;20310;-58
2023/08/25 09:30:59;;;;;;;4.83;2.47;;;;;;;19.76;100.00;100287.31;4991157;28;20789;-58
2023/08/25 09:33:31;;;;;;;2.27;1.67;;;;;;;19.53;100.00;100286.72;5020748;28;20337;-57
2023/08/25 09:36:07;;;;;;;2.50;1.20;;;;;;;19.40;100.00;100286.53;5011127;28;20315;-58
2023/08/25 09:38:46;;;;;;;1.27;1.17;;;;;;;19.34;100.00;100292.13;5020625;28;20291;-57
2023/08/25 09:41:29;;;;;;;2.37;1.07;;;;;;;19.38;100.00;100287.53;4990985;28;20747;-56
2023/08/25 09:44:02;;;;;;;2.80;1.20;;;;;;;19.40;100.00;100278.56;4991533;28;20285;-55
2023/08/25 09:46:34;;;;;;;6.20;1.40;;;;;;;19.31;100.00;100279.06;5000535;28;20559;-58
2023/08/25 09:49:06;;;;;;;1.50;1.30;;;;;;;19.20;100.00;100278.78;4990216;28;20288;-57
2023/08/25 09:51:39;;;;;;;3.27;1.30;;;;;;;19.21;100.00;100253.13;5000262;28;20285;-58
2023/08/25 09:54:12;;;;;;;2.63;1.53;;;;;;;19.48;100.00;100298.53;5009319;28;20951;-55
2023/08/25 09:56:47;;;;;;;2.33;1.60;;;;;;;19.53;100.00;100291.19;5019864;28;20299;-54
2023/08/25 09:59:21;;;;;;;3.03;1.20;;;;;;;19.46;100.00;100289.78;4990765;28;20287;-57
2023/08/25 10:01:53;;;;;;;1.60;1.20;;;;;;;19.38;100.00;100283.09;5001115;28;20296;-57
2023/08/25 10:04:25;;;;;;;3.67;1.30;;;;;;;19.39;100.00;100276.00;5008565;28;20640;-57
2023/08/25 10:07:01;;;;;;;3.07;1.27;;;;;;;19.46;100.00;100284.50;5010208;28;20283;-56
2023/08/25 10:09:32;;;;;;;2.67;1.97;;;;;;;19.49;100.00;100268.41;5019698;28;20287;-57
2023/08/25 10:12:08;;;;;;;1.47;1.20;;;;;;;19.59;100.00;100283.78;5009694;28;20272;-57
2023/08/25 10:14:43;;;;;;;3.90;1.70;;;;;;;19.58;100.00;100283.84;5019863;28;20292;-56
2023/08/25 10:17:17;;;;;;;1.90;1.50;;;;;;;19.56;100.00;100285.72;5010366;28;20308;-56
2023/08/25 10:19:52;;;;;;;1.40;1.10;;;;;;;19.47;100.00;100283.53;5019851;28;20279;-57
2023/08/25 10:22:27;;;;;;;2.13;1.00;;;;;;;19.41;100.00;100297.97;5010667;28;20390;-56
2023/08/25 10:25:03;;;;;;;2.30;1.17;;;;;;;19.37;100.00;100294.66;5012651;28;20302;-57
2023/08/25 10:27:40;;;;;;;2.60;1.30;;;;;;;19.46;100.00;100284.50;5010909;28;20587;-57
2023/08/25 10:30:12;;;;;;;2.40;1.00;;;;;;;19.44;100.00;100289.00;4960698;28;20277;-57
2023/08/25 10:32:58;;;;;;;2.70;1.20;;;;;;;19.32;100.00;100296.69;5003388;28;20284;-57
2023/08/25 10:35:41;;;;;;;2.83;1.40;;;;;;;19.31;100.00;100292.31;5013438;28;20276;-57
2023/08/25 10:38:39;;;;;;;2.17;1.10;;;;;;;19.37;100.00;100292.00;5013610;28;20294;-56
2023/08/25 10:41:15;;;;;;;2.93;1.50;;;;;;;19.31;100.00;100292.31;5013507;28;20307;-57
2023/08/25 10:43:53;;;;;;;3.20;1.30;;;;;;;19.31;100.00;100287.00;5024102;28;20704;-57
2023/08/25 10:46:26;;;;;;;2.63;1.20;;;;;;;19.16;100.00;100290.44;5011101;28;20611;-57
2023/08/25 10:49:17;;;;;;;1.93;0.90;;;;;;;19.19;100.00;100308.81;5012928;28;21054;-56
2023/08/25 10:51:48;;;;;;;2.93;1.43;;;;;;;19.17;100.00;100294.84;5022977;28;20714;-56
2023/08/25 10:54:20;;;;;;;2.60;0.80;;;;;;;19.24;100.00;100317.38;5013156;28;20295;-57
2023/08/25 10:56:54;;;;;;;2.27;1.00;;;;;;;19.18;100.00;100317.72;5023529;28;20291;-57
2023/08/25 10:59:28;;;;;;;2.67;1.03;;;;;;;18.89;100.00;100263.59;4993114;28;20280;-56
2023/08/25 11:02:00;;;;;;;6.37;1.57;;;;;;;19.03;100.00;100313.22;4994888;28;20296;-57
2023/08/25 11:04:32;;;;;;;2.27;1.00;;;;;;;18.78;100.00;100274.72;5022904;28;20851;-56
2023/08/25 11:07:05;;;;;;;1.03;0.90;;;;;;;18.89;100.00;100306.78;5013294;28;20357;-56
2023/08/25 11:09:37;;;;;;;2.27;1.10;;;;;;;18.94;100.00;100299.47;5023559;28;21355;-56
2023/08/25 11:12:10;;;;;;;1.60;1.03;;;;;;;18.50;100.00;100220.50;5013630;28;20361;-56
2023/08/25 11:14:46;;;;;;;1.10;1.00;;;;;;;18.98;100.00;100299.34;5023171;28;20378;-57
2023/08/25 11:17:17;;;;;;;2.17;1.10;;;;;;;19.02;100.00;100303.53;5013911;28;20295;-56
2023/08/25 11:19:51;;;;;;;6.07;1.30;;;;;;;19.07;100.00;100304.16;5023115;28;20390;-56
2023/08/25 11:22:23;;;;;;;2.07;1.70;;;;;;;19.05;100.00;100311.34;4992839;28;20808;-56
2023/08/25 11:24:55;;;;;;;5.00;1.17;;;;;;;18.95;100.00;100301.22;5002936;28;20849;-57
2023/08/25 11:27:28;;;;;;;2.47;1.10;;;;;;;19.07;100.00;100309.44;5012900;28;20372;-57
2023/08/25 11:30:12;;;;;;;4.33;1.20;;;;;;;19.12;100.00;100307.41;5013370;28;20284;-57
2023/08/25 11:32:47;;;;;;;3.77;1.27;;;;;;;19.20;100.00;100299.13;5022690;28;20820;-56
2023/08/25 11:35:19;;;;;;;3.00;1.37;;;;;;;19.22;100.00;100295.44;5010056;28;20283;-57
2023/08/25 11:37:52;;;;;;;2.53;1.40;;;;;;;19.22;100.00;100303.41;5003285;28;20364;-56
2023/08/25 11:40:25;;;;;;;4.10;1.50;;;;;;;19.25;100.00;100297.94;5012480;28;20283;-56
2023/08/25 11:42:57;;;;;;;3.97;1.67;;;;;;;19.25;100.00;100297.94;5014578;28;20667;-55
2023/08/25 11:45:32;;;;;;;9.00;1.43;;;;;;;19.10;100.00;100304.03;5022043;28;20279;-56
2023/08/25 11:48:06;;;;;;;6.93;1.47;;;;;;;18.99;100.00;100311.63;5003728;28;20813;-56
2023/08/25 11:50:39;;;;;;;9.07;2.00;;;;;;;18.98;100.00;100299.34;5002250;28;20357;-58
2023/08/25 11:53:11;;;;;;;7.30;1.63;;;;;;;18.93;100.00;100295.13;4992676;28;20303;-58